CheckWX is a tool to help pilots better visualize weather data.  It is not intended as a substitute for an official pre-flight weather briefing.

23:57:56 UTC

KOSA METAR
Mount Pleasant Regional Airport
Mount Pleasant, Texas, USA
Current

23 mins ago

KOSA 222335Z AUTO 30009KT 10SM OVC007 09/07 A3005 RMK AO1 T00850068
Observed
Nov-22 @ 23:35 UTC
Wind
  • 300° at 9 KTS
Visibility
10 SM
Flight Rules
IFR
Cloud Levels
  • Overcast at 700' AGL
Temperature
C / 48°F
Dewpoint
C / 45°F
Humidity
87%
Altimeter
30.05" Hg
Pressure
1017.62 hPa
Previous

43 mins ago

KOSA 222315Z AUTO 30010KT 10SM OVC007 09/07 A3005 RMK AO1 T00860069
Observed
Nov-22 @ 23:15 UTC
Wind
  • 300° at 10 KTS
Visibility
10 SM
Flight Rules
IFR
Cloud Levels
  • Overcast at 700' AGL
Temperature
C / 48°F
Dewpoint
C / 45°F
Humidity
87%
Altimeter
30.05" Hg
Pressure
1017.62 hPa
Previous

1 hour ago

KOSA 222255Z AUTO 29011KT 10SM OVC007 09/07 A3005 RMK AO1 T00880071
Observed
Nov-22 @ 22:55 UTC
Wind
  • 290° at 11 KTS
Visibility
10 SM
Flight Rules
IFR
Cloud Levels
  • Overcast at 700' AGL
Temperature
C / 48°F
Dewpoint
C / 45°F
Humidity
87%
Altimeter
30.05" Hg
Pressure
1017.62 hPa